createdAt,value
2022-10-08T00:05:41.266Z,0.52
2022-10-08T00:08:24.104Z,0.50
2022-10-08T00:10:58.504Z,0.40
2022-10-08T00:13:25.747Z,0.40
2022-10-08T00:15:53.225Z,0.40
2022-10-08T00:18:20.973Z,0.32
2022-10-08T00:20:47.853Z,0.55
2022-10-08T00:23:14.546Z,0.30
2022-10-08T00:26:43.584Z,0.30
2022-10-08T00:29:50.216Z,0.20
2022-10-08T00:32:19.047Z,0.30
2022-10-08T00:34:47.274Z,0.45
2022-10-08T00:37:16.944Z,0.50
2022-10-08T00:40:21.927Z,0.20
2022-10-08T00:42:48.836Z,0.30
2022-10-08T00:45:15.710Z,0.20
2022-10-08T00:47:46.681Z,0.28
2022-10-08T00:51:09.158Z,0.30
2022-10-08T00:57:22.276Z,0.30
2022-10-08T01:03:57.335Z,0.20
2022-10-08T01:06:30.011Z,0.40
2022-10-08T01:09:19.745Z,0.30
2022-10-08T01:12:23.899Z,0.38
2022-10-08T01:15:00.512Z,0.68
2022-10-08T01:22:02.237Z,0.28
2022-10-08T01:31:51.581Z,0.32
2022-10-08T01:34:25.630Z,0.50
2022-10-08T01:36:54.761Z,0.30
2022-10-08T01:39:25.943Z,0.20
2022-10-08T01:41:56.514Z,0.60
2022-10-08T01:44:28.254Z,0.63
2022-10-08T01:46:58.774Z,0.30
2022-10-08T01:49:31.883Z,0.30
2022-10-08T01:52:04.686Z,0.20
2022-10-08T01:54:34.224Z,0.30
2022-10-08T01:57:05.831Z,0.40
2022-10-08T01:59:51.133Z,0.50
2022-10-08T02:02:20.904Z,0.50
2022-10-08T02:04:49.218Z,0.40
2022-10-08T02:07:18.913Z,0.70
2022-10-08T02:09:51.890Z,0.50
2022-10-08T02:12:19.739Z,0.82
2022-10-08T02:14:49.659Z,0.75
2022-10-08T02:17:37.401Z,0.63
2022-10-08T02:20:18.311Z,0.77
2022-10-08T02:23:01.831Z,1.10
2022-10-08T02:25:40.714Z,1.55
2022-10-08T02:28:20.709Z,1.23
2022-10-08T02:30:55.711Z,1.33
2022-10-08T02:33:30.323Z,1.38
2022-10-08T02:35:59.955Z,1.25
2022-10-08T02:38:38.181Z,1.50
2022-10-08T02:41:07.983Z,1.60
2022-10-08T02:43:40.278Z,1.50
2022-10-08T02:46:11.866Z,1.38
2022-10-08T02:48:42.437Z,1.58
2022-10-08T02:51:13.462Z,1.52
2022-10-08T02:53:41.599Z,1.50
2022-10-08T02:56:13.655Z,1.50
2022-10-08T02:58:42.596Z,1.52
2022-10-08T03:01:28.761Z,1.38
2022-10-08T03:04:03.534Z,1.63
2022-10-08T03:06:31.930Z,1.33
2022-10-08T03:09:00.985Z,1.30
2022-10-08T03:11:28.993Z,1.25
2022-10-08T03:13:58.698Z,1.33
2022-10-08T03:16:31.930Z,1.20
2022-10-08T03:19:02.198Z,0.93
2022-10-08T03:21:28.690Z,0.90
2022-10-08T03:23:55.114Z,1.50
2022-10-08T03:26:21.659Z,1.25
2022-10-08T03:28:48.189Z,0.80
2022-10-08T03:31:14.743Z,0.80
2022-10-08T03:33:41.270Z,1.00
2022-10-08T03:36:07.801Z,0.73
2022-10-08T03:38:34.931Z,1.00
2022-10-08T03:41:01.599Z,1.00
2022-10-08T03:43:32.829Z,1.20
2022-10-08T03:45:59.847Z,1.00
2022-10-08T03:48:26.690Z,0.88
2022-10-08T03:50:58.132Z,1.20
2022-10-08T03:53:25.877Z,1.10
2022-10-08T03:55:52.738Z,1.27
2022-10-08T03:58:20.122Z,1.10
2022-10-08T04:01:00.156Z,1.15
2022-10-08T04:03:27.643Z,1.55
2022-10-08T04:05:54.370Z,1.08
2022-10-08T04:08:21.290Z,0.77
2022-10-08T04:10:47.737Z,1.30
2022-10-08T04:13:18.335Z,1.00
2022-10-08T04:15:47.216Z,1.10
2022-10-08T04:18:15.061Z,1.10
2022-10-08T04:20:41.862Z,1.52
2022-10-08T04:23:09.235Z,1.07
2022-10-08T04:25:36.620Z,1.15
2022-10-08T04:28:04.999Z,1.48
2022-10-08T04:30:33.042Z,1.13
2022-10-08T04:32:59.508Z,1.27
2022-10-08T04:35:26.118Z,1.23
2022-10-08T04:37:52.640Z,1.63
2022-10-08T04:40:19.127Z,1.30
2022-10-08T04:42:50.512Z,1.38
2022-10-08T04:45:17.144Z,1.38
2022-10-08T04:47:43.770Z,1.33
2022-10-08T04:51:10.597Z,1.20
2022-10-08T04:53:38.083Z,1.60
2022-10-08T04:56:12.906Z,1.38
2022-10-08T04:58:39.893Z,1.33
2022-10-08T05:01:08.884Z,1.47
2022-10-08T05:03:39.566Z,1.25
2022-10-08T05:06:06.508Z,1.60
2022-10-08T05:08:33.923Z,1.60
2022-10-08T05:11:00.502Z,1.25
2022-10-08T05:13:26.971Z,1.20
2022-10-08T05:15:53.575Z,1.60
2022-10-08T05:18:21.036Z,1.38
2022-10-08T05:20:47.505Z,1.40
2022-10-08T05:23:13.972Z,1.95
2022-10-08T05:25:40.711Z,1.60
2022-10-08T05:28:07.508Z,1.45
2022-10-08T05:30:34.046Z,1.63
2022-10-08T05:33:00.638Z,1.33
2022-10-08T05:35:27.170Z,1.60
2022-10-08T05:37:53.632Z,2.07
2022-10-08T05:40:20.942Z,1.40
2022-10-08T05:46:39.079Z,1.30
2022-10-08T05:49:13.755Z,1.80
2022-10-08T05:51:40.320Z,1.43
2022-10-08T05:54:06.721Z,1.30
2022-10-08T05:56:33.489Z,1.33
2022-10-08T05:59:00.031Z,1.48
2022-10-08T06:01:30.801Z,1.30
2022-10-08T06:04:04.270Z,1.50
2022-10-08T06:06:36.558Z,1.20
2022-10-08T06:09:03.884Z,1.33
2022-10-08T06:11:32.630Z,1.25
2022-10-08T06:14:00.859Z,1.20
2022-10-08T06:16:28.795Z,1.07
2022-10-08T06:18:56.281Z,1.27
2022-10-08T06:21:25.916Z,1.15
2022-10-08T06:23:58.032Z,0.90
2022-10-08T06:26:30.554Z,0.80
2022-10-08T06:29:01.142Z,0.90
2022-10-08T06:31:28.449Z,0.95
2022-10-08T06:33:57.268Z,0.77
2022-10-08T06:36:26.561Z,0.80
2022-10-08T06:38:57.666Z,0.95
2022-10-08T06:41:24.805Z,1.10
2022-10-08T06:43:51.738Z,1.00
2022-10-08T06:46:19.193Z,0.70
2022-10-08T06:48:46.506Z,0.70
2022-10-08T06:51:15.732Z,1.38
2022-10-08T06:53:43.634Z,0.80
2022-10-08T06:56:18.010Z,0.80
2022-10-08T06:58:45.385Z,0.70
2022-10-08T07:01:17.597Z,0.80
2022-10-08T07:03:48.498Z,0.40
2022-10-08T07:06:18.237Z,0.73
2022-10-08T07:08:44.966Z,0.57
2022-10-08T07:11:17.028Z,0.60
2022-10-08T07:13:44.569Z,0.50
2022-10-08T07:16:20.860Z,0.50
2022-10-08T07:18:49.632Z,0.30
2022-10-08T07:21:17.887Z,0.32
2022-10-08T07:23:44.542Z,0.30
2022-10-08T07:26:16.180Z,0.35
2022-10-08T07:28:52.526Z,0.50
2022-10-08T07:31:31.608Z,0.60
2022-10-08T07:34:03.414Z,0.60
2022-10-08T07:36:30.393Z,0.40
2022-10-08T07:39:08.395Z,0.38
2022-10-08T07:41:35.564Z,0.30
2022-10-08T07:44:03.129Z,0.40
2022-10-08T07:46:33.231Z,0.40
2022-10-08T07:49:01.514Z,0.30
2022-10-08T07:51:33.421Z,0.30
2022-10-08T07:54:02.686Z,0.40
2022-10-08T07:56:30.530Z,0.33
2022-10-08T07:58:58.467Z,0.40
2022-10-08T08:01:29.944Z,0.60
2022-10-08T08:04:02.168Z,0.30
2022-10-08T08:06:31.128Z,0.30
2022-10-08T08:08:59.466Z,0.50
2022-10-08T08:11:26.356Z,0.50
2022-10-08T08:13:53.470Z,0.40
2022-10-08T08:16:23.043Z,0.35
2022-10-08T08:18:52.220Z,0.30
2022-10-08T08:21:24.170Z,0.63
2022-10-08T08:23:53.816Z,0.30
2022-10-08T08:26:29.145Z,0.75
2022-10-08T08:28:58.328Z,0.25
2022-10-08T08:31:30.801Z,0.40
2022-10-08T08:34:00.421Z,0.20
2022-10-08T08:36:29.963Z,0.77
2022-10-08T08:38:57.041Z,0.40
2022-10-08T08:41:35.788Z,0.38
2022-10-08T08:44:13.282Z,0.50
2022-10-08T08:46:44.569Z,0.40
2022-10-08T08:49:19.462Z,0.32
2022-10-08T08:51:46.177Z,0.55
2022-10-08T08:54:12.843Z,0.30
2022-10-08T08:56:39.615Z,0.47
2022-10-08T08:59:15.753Z,0.50
2022-10-08T09:01:45.074Z,0.52
2022-10-08T09:04:24.371Z,0.50
2022-10-08T09:06:53.273Z,0.30
2022-10-08T09:09:19.660Z,0.40
2022-10-08T09:11:46.880Z,0.27
2022-10-08T09:14:19.547Z,0.40
2022-10-08T09:16:46.973Z,0.40
2022-10-08T09:19:13.705Z,0.50
2022-10-08T09:21:40.201Z,0.95
2022-10-08T09:24:06.719Z,0.40
2022-10-08T09:26:37.952Z,0.40
2022-10-08T09:29:05.721Z,0.38
2022-10-08T09:31:41.834Z,0.40
2022-10-08T09:34:11.355Z,0.30
2022-10-08T09:36:45.708Z,0.50
2022-10-08T09:39:24.765Z,0.30
2022-10-08T09:42:06.424Z,0.50
2022-10-08T09:44:47.808Z,0.30
2022-10-08T09:47:20.269Z,0.43
2022-10-08T09:50:01.433Z,0.93
2022-10-08T09:52:28.578Z,0.50
2022-10-08T09:55:21.166Z,0.32
2022-10-08T09:57:51.556Z,0.47
2022-10-08T10:00:39.727Z,0.60
2022-10-08T10:03:14.773Z,0.53
2022-10-08T10:05:41.592Z,0.32
2022-10-08T10:08:46.661Z,0.50
2022-10-08T10:11:19.659Z,0.35
2022-10-08T10:13:49.546Z,0.60
2022-10-08T10:16:21.836Z,0.60
2022-10-08T10:18:52.466Z,0.50
2022-10-08T10:21:45.718Z,0.47
2022-10-08T10:24:22.499Z,0.38
2022-10-08T10:26:53.839Z,0.45
2022-10-08T10:29:26.403Z,0.33
2022-10-08T10:32:02.044Z,0.30
2022-10-08T10:34:31.776Z,0.35
2022-10-08T10:37:01.582Z,0.47
2022-10-08T10:39:41.613Z,0.20
2022-10-08T10:42:20.969Z,0.53
2022-10-08T10:44:57.676Z,0.30
2022-10-08T10:47:43.964Z,0.30
2022-10-08T10:50:14.901Z,0.20
2022-10-08T10:52:59.734Z,0.50
2022-10-08T10:55:30.898Z,0.47
2022-10-08T10:58:10.873Z,0.20
2022-10-08T11:00:37.313Z,0.30
2022-10-08T11:03:21.994Z,0.30
2022-10-08T11:05:57.951Z,0.50
2022-10-08T11:08:25.527Z,0.33
2022-10-08T11:11:17.370Z,0.40
2022-10-08T11:13:49.817Z,0.43
2022-10-08T11:16:47.786Z,0.40
2022-10-08T11:19:40.515Z,0.82
2022-10-08T11:22:37.572Z,0.50
2022-10-08T11:28:59.720Z,0.57
2022-10-08T11:35:17.547Z,0.68
2022-10-08T11:38:46.843Z,0.50
2022-10-08T11:41:26.552Z,0.70
2022-10-08T11:43:58.612Z,0.40
2022-10-08T11:46:29.970Z,0.88
2022-10-08T11:49:16.930Z,0.50
2022-10-08T11:51:52.065Z,0.53
2022-10-08T11:54:28.297Z,0.40
2022-10-08T11:57:20.220Z,0.73
2022-10-08T11:59:57.090Z,0.40
2022-10-08T12:02:37.671Z,0.25
2022-10-08T12:05:22.485Z,0.40
2022-10-08T12:07:52.333Z,0.40
2022-10-08T12:10:18.762Z,0.60
2022-10-08T12:12:51.087Z,0.60
2022-10-08T12:15:23.808Z,0.30
2022-10-08T12:17:54.548Z,0.30
2022-10-08T12:20:27.073Z,0.38
2022-10-08T12:23:04.623Z,0.30
2022-10-08T12:25:44.768Z,0.50
2022-10-08T12:28:35.759Z,0.77
2022-10-08T12:31:24.247Z,0.30
2022-10-08T12:34:13.596Z,0.40
2022-10-08T12:36:46.073Z,0.70
2022-10-08T12:39:21.650Z,1.10
2022-10-08T12:41:54.229Z,0.65
2022-10-08T12:44:45.474Z,0.60
2022-10-08T12:47:32.764Z,0.30
2022-10-08T12:50:29.920Z,0.65
2022-10-08T12:52:59.992Z,0.47
2022-10-08T12:55:26.798Z,0.30
2022-10-08T12:57:53.411Z,0.30
2022-10-08T13:00:25.777Z,0.47
2022-10-08T13:03:25.565Z,0.63
2022-10-08T13:05:55.237Z,0.55
2022-10-08T13:08:32.052Z,0.40
2022-10-08T13:11:01.883Z,0.20
2022-10-08T13:13:40.584Z,0.30
2022-10-08T13:16:10.216Z,0.40
2022-10-08T13:18:39.646Z,0.50
2022-10-08T13:21:22.641Z,0.40
2022-10-08T13:23:49.158Z,0.50
2022-10-08T13:26:52.145Z,0.50
2022-10-08T13:29:21.733Z,0.30
2022-10-08T13:32:05.075Z,0.30
2022-10-08T13:34:40.650Z,0.90
2022-10-08T13:37:15.712Z,0.30
2022-10-08T13:40:15.580Z,0.47
2022-10-08T13:42:45.950Z,0.57
2022-10-08T13:45:24.045Z,0.28
2022-10-08T13:47:51.473Z,0.40
2022-10-08T13:50:19.224Z,0.40
2022-10-08T13:52:51.237Z,0.40
2022-10-08T13:55:36.127Z,0.50
2022-10-08T13:58:05.339Z,0.50
2022-10-08T14:00:35.663Z,0.30
2022-10-08T14:03:03.015Z,0.30
2022-10-08T14:05:30.506Z,0.20
2022-10-08T14:08:00.453Z,0.40
2022-10-08T14:10:27.227Z,0.30
2022-10-08T14:12:53.857Z,0.40
2022-10-08T14:15:20.560Z,0.97
2022-10-08T14:17:49.582Z,0.30
2022-10-08T14:20:16.825Z,0.50
2022-10-08T14:22:43.329Z,0.30
2022-10-08T14:25:21.845Z,0.22
2022-10-08T14:27:48.566Z,0.30
2022-10-08T14:30:16.293Z,0.47
2022-10-08T14:32:44.073Z,0.30
2022-10-08T14:35:11.596Z,0.20
2022-10-08T14:37:38.905Z,0.40
2022-10-08T14:40:07.427Z,0.37
2022-10-08T14:42:33.983Z,0.20
2022-10-08T14:45:01.383Z,0.30
2022-10-08T14:47:28.020Z,0.30
2022-10-08T14:49:54.733Z,0.60
2022-10-08T14:52:21.256Z,0.20
2022-10-08T14:54:47.760Z,0.30
2022-10-08T14:57:14.392Z,0.30
2022-10-08T14:59:41.314Z,0.30
2022-10-08T15:02:10.851Z,0.30
2022-10-08T15:04:38.204Z,0.30
2022-10-08T15:07:05.458Z,0.43
2022-10-08T15:09:32.027Z,0.20
2022-10-08T15:11:58.581Z,0.20
2022-10-08T15:14:25.273Z,0.30
2022-10-08T15:16:51.834Z,0.40
2022-10-08T15:19:22.740Z,0.40
2022-10-08T15:21:50.245Z,0.20
2022-10-08T15:24:17.092Z,0.40
2022-10-08T15:26:43.587Z,0.40
2022-10-08T15:29:10.224Z,0.20
2022-10-08T15:31:36.762Z,0.55
2022-10-08T15:34:03.258Z,0.50
2022-10-08T15:36:32.439Z,0.40
2022-10-08T15:39:17.533Z,0.40
2022-10-08T15:41:46.912Z,0.20
2022-10-08T15:44:25.174Z,0.30
2022-10-08T15:46:59.746Z,0.40
2022-10-08T15:50:20.000Z,1.38
2022-10-08T15:56:47.811Z,0.60
2022-10-08T15:59:14.462Z,0.45
2022-10-08T16:01:40.881Z,0.70
2022-10-08T16:04:07.958Z,0.50
2022-10-08T16:06:36.022Z,0.70
2022-10-08T16:09:04.210Z,0.90
2022-10-08T16:11:32.981Z,0.68
2022-10-08T16:14:06.311Z,0.45
2022-10-08T16:16:33.120Z,0.60
2022-10-08T16:19:02.054Z,0.30
2022-10-08T16:21:30.987Z,0.50
2022-10-08T16:23:59.103Z,0.40
2022-10-08T16:26:28.993Z,0.88
2022-10-08T16:29:02.892Z,0.40
2022-10-08T16:31:32.016Z,0.40
2022-10-08T16:34:00.619Z,0.40
2022-10-08T16:36:29.014Z,0.30
2022-10-08T16:42:39.907Z,0.40
2022-10-08T16:45:29.557Z,0.68
2022-10-08T16:47:58.215Z,0.40
2022-10-08T16:50:24.793Z,0.77
2022-10-08T16:52:51.385Z,0.50
2022-10-08T16:55:17.981Z,0.40
2022-10-08T16:57:44.518Z,0.50
2022-10-08T17:00:11.675Z,0.70
2022-10-08T17:02:38.248Z,0.88
2022-10-08T17:05:05.239Z,0.93
2022-10-08T17:07:31.737Z,0.38
2022-10-08T17:09:58.213Z,0.70
2022-10-08T17:12:24.725Z,0.40
2022-10-08T17:14:51.229Z,0.45
2022-10-08T17:17:17.660Z,0.40
2022-10-08T17:19:44.812Z,0.38
2022-10-08T17:22:13.092Z,0.52
2022-10-08T17:24:42.391Z,0.40
2022-10-08T17:27:09.027Z,0.50
2022-10-08T17:29:35.535Z,0.63
2022-10-08T17:32:03.064Z,0.60
2022-10-08T17:34:29.681Z,0.70
2022-10-08T17:36:56.154Z,0.60
2022-10-08T17:39:22.749Z,0.95
2022-10-08T17:41:49.349Z,0.47
2022-10-08T17:44:15.823Z,0.73
2022-10-08T17:46:46.027Z,0.75
2022-10-08T17:49:14.868Z,0.70
2022-10-08T17:51:41.986Z,1.23
2022-10-08T17:54:12.427Z,0.93
2022-10-08T17:56:39.762Z,1.00
2022-10-08T17:59:06.241Z,1.23
2022-10-08T18:01:36.092Z,0.47
2022-10-08T18:04:07.484Z,0.55
2022-10-08T18:06:36.496Z,0.73
2022-10-08T18:09:06.224Z,0.65
2022-10-08T18:11:34.881Z,0.65
2022-10-08T18:14:02.106Z,0.70
2022-10-08T18:16:28.762Z,0.57
2022-10-08T18:18:55.299Z,0.95
2022-10-08T18:21:22.276Z,2.00
2022-10-08T18:23:49.291Z,1.50
2022-10-08T18:26:22.175Z,1.50
2022-10-08T18:28:54.475Z,1.50
2022-10-08T18:31:22.792Z,1.63
2022-10-08T18:33:50.798Z,2.67
2022-10-08T18:36:21.638Z,1.65
2022-10-08T18:38:53.172Z,1.80
2022-10-08T18:41:25.581Z,2.00
2022-10-08T18:43:52.742Z,1.70
2022-10-08T18:46:20.853Z,2.13
2022-10-08T18:48:47.742Z,1.95
2022-10-08T18:51:16.950Z,2.10
2022-10-08T18:53:45.242Z,2.80
2022-10-08T18:56:20.691Z,5.55
2022-10-08T18:58:47.518Z,4.40
2022-10-08T19:01:23.157Z,3.95
2022-10-08T19:03:52.576Z,4.23
2022-10-08T19:06:20.754Z,3.65
2022-10-08T19:08:47.316Z,3.20
2022-10-08T19:11:19.551Z,3.40
2022-10-08T19:13:46.449Z,4.35
2022-10-08T19:16:15.034Z,3.03
2022-10-08T19:18:55.338Z,2.60
2022-10-08T19:21:23.111Z,2.42
2022-10-08T19:23:49.624Z,2.53
2022-10-08T19:26:16.638Z,2.38
2022-10-08T19:28:49.060Z,2.00
2022-10-08T19:31:23.056Z,1.88
2022-10-08T19:33:55.242Z,1.80
2022-10-08T19:36:23.215Z,1.30
2022-10-08T19:38:57.848Z,1.00
2022-10-08T19:41:25.414Z,1.03
2022-10-08T19:43:52.791Z,1.10
2022-10-08T19:46:19.788Z,1.30
2022-10-08T19:48:51.534Z,1.00
2022-10-08T19:51:18.902Z,1.17
2022-10-08T19:53:45.753Z,0.80
2022-10-08T19:56:13.487Z,1.02
2022-10-08T19:58:46.274Z,1.00
2022-10-08T20:01:17.662Z,1.15
2022-10-08T20:03:44.794Z,1.20
2022-10-08T20:06:14.221Z,1.20
2022-10-08T20:08:40.969Z,0.82
2022-10-08T20:11:10.523Z,1.50
2022-10-08T20:13:37.628Z,1.25
2022-10-08T20:16:08.182Z,1.52
2022-10-08T20:18:35.722Z,1.67
2022-10-08T20:21:20.648Z,1.98
2022-10-08T20:23:47.345Z,2.17
2022-10-08T20:26:22.756Z,2.17
2022-10-08T20:28:52.567Z,2.30
2022-10-08T20:31:23.617Z,3.73
2022-10-08T20:33:59.805Z,4.03
2022-10-08T20:36:27.005Z,4.22
2022-10-08T20:38:53.567Z,3.42
2022-10-08T20:41:21.013Z,3.85
2022-10-08T20:43:47.479Z,4.00
2022-10-08T20:46:15.940Z,2.90
2022-10-08T20:48:44.321Z,1.30
2022-10-08T20:51:17.133Z,3.83
2022-10-08T20:53:48.257Z,3.97
2022-10-08T20:56:14.978Z,3.60
2022-10-08T20:58:42.012Z,3.03
2022-10-08T21:01:20.330Z,2.85
2022-10-08T21:03:47.568Z,4.13
2022-10-08T21:06:20.379Z,4.22
2022-10-08T21:08:48.931Z,4.10
2022-10-08T21:11:17.704Z,3.63
2022-10-08T21:13:44.936Z,2.88
2022-10-08T21:16:20.373Z,2.53
2022-10-08T21:18:52.010Z,2.40
2022-10-08T21:21:19.519Z,2.40
2022-10-08T21:23:47.498Z,3.08
2022-10-08T21:26:17.557Z,3.58
2022-10-08T21:28:46.380Z,3.40
2022-10-08T21:31:13.955Z,2.80
2022-10-08T21:33:43.607Z,2.53
2022-10-08T21:36:20.466Z,3.10
2022-10-08T21:38:47.334Z,2.63
2022-10-08T21:41:15.890Z,2.50
2022-10-08T21:43:43.728Z,2.22
2022-10-08T21:46:12.788Z,2.37
2022-10-08T21:48:39.833Z,1.67
2022-10-08T21:51:12.841Z,1.20
2022-10-08T21:53:40.868Z,1.80
2022-10-08T21:56:10.607Z,2.05
2022-10-08T21:58:42.870Z,2.37
2022-10-08T22:01:24.647Z,1.95
2022-10-08T22:03:59.714Z,2.17
2022-10-08T22:06:30.015Z,1.23
2022-10-08T22:08:56.670Z,1.67
2022-10-08T22:11:23.327Z,1.40
2022-10-08T22:13:50.229Z,1.83
2022-10-08T22:16:19.473Z,1.70
2022-10-08T22:18:46.441Z,1.88
2022-10-08T22:21:18.836Z,1.35
2022-10-08T22:23:46.325Z,1.30
2022-10-08T22:26:18.840Z,1.23
2022-10-08T22:28:46.058Z,1.13
2022-10-08T22:31:14.342Z,1.35
2022-10-08T22:33:41.090Z,1.20
2022-10-08T22:36:15.417Z,1.10
2022-10-08T22:38:43.349Z,1.52
2022-10-08T22:41:30.079Z,1.50
2022-10-08T22:43:57.145Z,1.75
2022-10-08T22:46:29.295Z,1.33
2022-10-08T22:49:00.298Z,1.40
2022-10-08T22:51:27.638Z,1.35
2022-10-08T22:53:54.797Z,2.00
2022-10-08T22:56:24.461Z,0.95
2022-10-08T22:58:51.561Z,1.60
2022-10-08T23:01:21.099Z,1.13
2022-10-08T23:03:48.502Z,1.30
2022-10-08T23:06:14.969Z,1.10
2022-10-08T23:08:41.894Z,1.42
2022-10-08T23:11:08.972Z,1.50
2022-10-08T23:13:35.930Z,1.30
2022-10-08T23:16:08.407Z,1.30
2022-10-08T23:18:38.068Z,1.42
2022-10-08T23:21:07.802Z,1.65
2022-10-08T23:23:34.742Z,1.70
2022-10-08T23:26:04.571Z,1.50
2022-10-08T23:28:34.156Z,1.30
2022-10-08T23:31:09.748Z,1.08
2022-10-08T23:33:38.217Z,1.60
2022-10-08T23:36:06.507Z,1.90
2022-10-08T23:38:34.480Z,1.40
2022-10-08T23:41:02.318Z,1.15
2022-10-08T23:43:33.506Z,1.40
2022-10-08T23:46:00.082Z,1.02
2022-10-08T23:48:26.856Z,1.40
2022-10-08T23:50:53.443Z,1.20
2022-10-08T23:53:21.169Z,1.17
2022-10-08T23:55:48.115Z,1.00
2022-10-08T23:58:17.824Z,1.02
